Aviation Digital Data Service (ADDS)

Output produced by TAFs form (0752 UTC 17 October 2017)
found at http://www.aviationweather.gov/adds/tafs/
 
KCHA 170653Z AUTO 03008KT 10SM CLR 11/05 A3028 RMK AO2 SLP250 T01110050 $
KCHA 170525Z 1706/1806 03005KT P6SM SKC 
     FM180000 00000KT P6SM SKC